sensor_id;sensor_type;location;lat;lon;timestamp;P1;P2;P0
63707;PMS5003;67643;-34.198;22.084;2023-05-07T00:00:15;2;2;
63707;PMS5003;67643;-34.198;22.084;2023-05-07T02:09:19;2;0;
63707;PMS5003;67643;-34.198;22.084;2023-05-07T02:11:47;4;2;
63707;PMS5003;67643;-34.198;22.084;2023-05-07T02:14:16;4;2;
63707;PMS5003;67643;-34.198;22.084;2023-05-07T02:16:44;4;2;
63707;PMS5003;67643;-34.198;22.084;2023-05-07T02:19:13;2;1;
63707;PMS5003;67643;-34.198;22.084;2023-05-07T02:21:41;4;4;
63707;PMS5003;67643;-34.198;22.084;2023-05-07T02:24:10;2;2;
63707;PMS5003;67643;-34.198;22.084;2023-05-07T02:26:39;0;0;
63707;PMS5003;67643;-34.198;22.084;2023-05-07T02:29:07;2;2;
63707;PMS5003;67643;-34.198;22.084;2023-05-07T02:31:35;4;4;
63707;PMS5003;67643;-34.198;22.084;2023-05-07T02:34:04;4;2;
63707;PMS5003;67643;-34.198;22.084;2023-05-07T02:36:32;4;2;
63707;PMS5003;67643;-34.198;22.084;2023-05-07T02:39:01;2;2;
63707;PMS5003;67643;-34.198;22.084;2023-05-07T02:41:30;2;1;
63707;PMS5003;67643;-34.198;22.084;2023-05-07T02:43:58;3;2;
63707;PMS5003;67643;-34.198;22.084;2023-05-07T02:46:27;2;1;
63707;PMS5003;67643;-34.198;22.084;2023-05-07T02:48:55;2;2;
63707;PMS5003;67643;-34.198;22.084;2023-05-07T02:51:25;2;2;
63707;PMS5003;67643;-34.198;22.084;2023-05-07T02:53:53;3;2;
63707;PMS5003;67643;-34.198;22.084;2023-05-07T02:56:22;3;2;
63707;PMS5003;67643;-34.198;22.084;2023-05-07T02:58:52;2;1;
63707;PMS5003;67643;-34.198;22.084;2023-05-07T03:01:21;3;1;
63707;PMS5003;67643;-34.198;22.084;2023-05-07T03:03:49;3;1;
63707;PMS5003;67643;-34.198;22.084;2023-05-07T03:06:17;2;1;
63707;PMS5003;67643;-34.198;22.084;2023-05-07T03:08:46;2;2;
63707;PMS5003;67643;-34.198;22.084;2023-05-07T03:11:15;3;2;
63707;PMS5003;67643;-34.198;22.084;2023-05-07T03:13:44;2;1;
63707;PMS5003;67643;-34.198;22.084;2023-05-07T03:16:12;4;2;
63707;PMS5003;67643;-34.198;22.084;2023-05-07T03:18:41;3;2;
63707;PMS5003;67643;-34.198;22.084;2023-05-07T03:21:09;5;3;
63707;PMS5003;67643;-34.198;22.084;2023-05-07T03:23:38;3;3;
63707;PMS5003;67643;-34.198;22.084;2023-05-07T03:26:06;2;2;
63707;PMS5003;67643;-34.198;22.084;2023-05-07T03:28:35;4;2;
63707;PMS5003;67643;-34.198;22.084;2023-05-07T03:31:03;1;1;
63707;PMS5003;67643;-34.198;22.084;2023-05-07T03:33:33;3;1;
63707;PMS5003;67643;-34.198;22.084;2023-05-07T03:36:01;1;0;
63707;PMS5003;67643;-34.198;22.084;2023-05-07T03:38:29;2;2;
63707;PMS5003;67643;-34.198;22.084;2023-05-07T03:40:58;1;1;
63707;PMS5003;67643;-34.198;22.084;2023-05-07T03:43:27;1;1;
63707;PMS5003;67643;-34.198;22.084;2023-05-07T03:45:55;5;2;
63707;PMS5003;67643;-34.198;22.084;2023-05-07T03:48:24;7;4;
63707;PMS5003;67643;-34.198;22.084;2023-05-07T03:50:52;5;4;
63707;PMS5003;67643;-34.198;22.084;2023-05-07T03:53:21;3;3;
63707;PMS5003;67643;-34.198;22.084;2023-05-07T03:55:49;5;4;
63707;PMS5003;67643;-34.198;22.084;2023-05-07T03:58:17;2;2;
63707;PMS5003;67643;-34.198;22.084;2023-05-07T04:00:46;4;3;
63707;PMS5003;67643;-34.198;22.084;2023-05-07T04:03:14;4;2;
63707;PMS5003;67643;-34.198;22.084;2023-05-07T04:05:43;7;2;
63707;PMS5003;67643;-34.198;22.084;2023-05-07T04:08:11;5;2;
63707;PMS5003;67643;-34.198;22.084;2023-05-07T04:10:40;4;2;
63707;PMS5003;67643;-34.198;22.084;2023-05-07T04:13:09;3;3;
63707;PMS5003;67643;-34.198;22.084;2023-05-07T04:15:38;2;2;
63707;PMS5003;67643;-34.198;22.084;2023-05-07T04:18:06;2;2;
63707;PMS5003;67643;-34.198;22.084;2023-05-07T04:20:35;3;3;
63707;PMS5003;67643;-34.198;22.084;2023-05-07T04:23:03;4;3;
63707;PMS5003;67643;-34.198;22.084;2023-05-07T04:25:32;4;2;
63707;PMS5003;67643;-34.198;22.084;2023-05-07T04:28:01;3;1;
63707;PMS5003;67643;-34.198;22.084;2023-05-07T04:30:30;4;2;
63707;PMS5003;67643;-34.198;22.084;2023-05-07T04:32:58;6;2;
63707;PMS5003;67643;-34.198;22.084;2023-05-07T04:35:27;1;1;
63707;PMS5003;67643;-34.198;22.084;2023-05-07T04:37:55;6;4;
63707;PMS5003;67643;-34.198;22.084;2023-05-07T04:40:24;7;3;
63707;PMS5003;67643;-34.198;22.084;2023-05-07T04:42:52;2;1;
63707;PMS5003;67643;-34.198;22.084;2023-05-07T04:45:21;3;2;
63707;PMS5003;67643;-34.198;22.084;2023-05-07T04:47:49;4;3;
63707;PMS5003;67643;-34.198;22.084;2023-05-07T04:50:18;2;0;
63707;PMS5003;67643;-34.198;22.084;2023-05-07T04:52:46;6;3;
63707;PMS5003;67643;-34.198;22.084;2023-05-07T04:55:15;2;2;
63707;PMS5003;67643;-34.198;22.084;2023-05-07T04:57:43;6;1;
63707;PMS5003;67643;-34.198;22.084;2023-05-07T05:00:12;8;1;
63707;PMS5003;67643;-34.198;22.084;2023-05-07T05:02:40;4;2;
63707;PMS5003;67643;-34.198;22.084;2023-05-07T05:05:09;3;3;
63707;PMS5003;67643;-34.198;22.084;2023-05-07T05:07:37;4;1;
63707;PMS5003;67643;-34.198;22.084;2023-05-07T05:10:06;3;1;
63707;PMS5003;67643;-34.198;22.084;2023-05-07T05:12:34;3;2;
63707;PMS5003;67643;-34.198;22.084;2023-05-07T05:15:04;2;1;
63707;PMS5003;67643;-34.198;22.084;2023-05-07T05:17:33;3;1;
63707;PMS5003;67643;-34.198;22.084;2023-05-07T05:20:02;1;1;
63707;PMS5003;67643;-34.198;22.084;2023-05-07T05:22:32;3;3;
63707;PMS5003;67643;-34.198;22.084;2023-05-07T05:25:00;2;2;
63707;PMS5003;67643;-34.198;22.084;2023-05-07T05:27:29;3;0;
63707;PMS5003;67643;-34.198;22.084;2023-05-07T05:29:57;0;0;
63707;PMS5003;67643;-34.198;22.084;2023-05-07T05:32:25;5;3;
63707;PMS5003;67643;-34.198;22.084;2023-05-07T05:34:54;3;1;
63707;PMS5003;67643;-34.198;22.084;2023-05-07T05:37:23;2;2;
63707;PMS5003;67643;-34.198;22.084;2023-05-07T05:39:51;1;1;
63707;PMS5003;67643;-34.198;22.084;2023-05-07T05:42:20;2;2;
63707;PMS5003;67643;-34.198;22.084;2023-05-07T05:44:48;3;2;
63707;PMS5003;67643;-34.198;22.084;2023-05-07T05:47:16;1;1;
63707;PMS5003;67643;-34.198;22.084;2023-05-07T05:49:45;0;0;
63707;PMS5003;67643;-34.198;22.084;2023-05-07T05:52:14;4;1;
63707;PMS5003;67643;-34.198;22.084;2023-05-07T05:54:42;3;1;
63707;PMS5003;67643;-34.198;22.084;2023-05-07T05:57:11;1;1;
63707;PMS5003;67643;-34.198;22.084;2023-05-07T05:59:39;3;2;
63707;PMS5003;67643;-34.198;22.084;2023-05-07T06:02:08;0;0;
63707;PMS5003;67643;-34.198;22.084;2023-05-07T06:04:36;1;1;
63707;PMS5003;67643;-34.198;22.084;2023-05-07T06:07:05;2;1;
63707;PMS5003;67643;-34.198;22.084;2023-05-07T06:09:33;7;2;
63707;PMS5003;67643;-34.198;22.084;2023-05-07T06:12:02;3;1;
63707;PMS5003;67643;-34.198;22.084;2023-05-07T06:14:30;0;0;
63707;PMS5003;67643;-34.198;22.084;2023-05-07T06:16:59;2;2;
63707;PMS5003;67643;-34.198;22.084;2023-05-07T06:19:28;1;1;
63707;PMS5003;67643;-34.198;22.084;2023-05-07T06:21:56;8;2;
63707;PMS5003;67643;-34.198;22.084;2023-05-07T06:24:25;2;1;
63707;PMS5003;67643;-34.198;22.084;2023-05-07T06:26:53;1;1;
63707;PMS5003;67643;-34.198;22.084;2023-05-07T06:29:21;2;2;
63707;PMS5003;67643;-34.198;22.084;2023-05-07T06:31:50;2;1;
63707;PMS5003;67643;-34.198;22.084;2023-05-07T06:34:18;0;0;
63707;PMS5003;67643;-34.198;22.084;2023-05-07T06:36:47;2;0;
63707;PMS5003;67643;-34.198;22.084;2023-05-07T06:39:15;2;0;
63707;PMS5003;67643;-34.198;22.084;2023-05-07T06:41:43;4;1;
63707;PMS5003;67643;-34.198;22.084;2023-05-07T06:44:12;2;2;
63707;PMS5003;67643;-34.198;22.084;2023-05-07T06:46:41;3;0;
63707;PMS5003;67643;-34.198;22.084;2023-05-07T06:49:09;3;1;
63707;PMS5003;67643;-34.198;22.084;2023-05-07T06:51:39;2;2;
63707;PMS5003;67643;-34.198;22.084;2023-05-07T06:54:08;0;0;
63707;PMS5003;67643;-34.198;22.084;2023-05-07T06:56:36;1;1;
63707;PMS5003;67643;-34.198;22.084;2023-05-07T06:59:05;1;0;
63707;PMS5003;67643;-34.198;22.084;2023-05-07T07:01:34;1;1;
63707;PMS5003;67643;-34.198;22.084;2023-05-07T07:04:02;1;1;
63707;PMS5003;67643;-34.198;22.084;2023-05-07T07:06:32;2;1;
63707;PMS5003;67643;-34.198;22.084;2023-05-07T07:09:00;4;2;
63707;PMS5003;67643;-34.198;22.084;2023-05-07T07:11:29;5;3;
63707;PMS5003;67643;-34.198;22.084;2023-05-07T07:13:57;4;2;
63707;PMS5003;67643;-34.198;22.084;2023-05-07T07:16:26;2;1;
63707;PMS5003;67643;-34.198;22.084;2023-05-07T07:18:55;2;0;
63707;PMS5003;67643;-34.198;22.084;2023-05-07T07:21:24;2;1;
63707;PMS5003;67643;-34.198;22.084;2023-05-07T07:23:52;5;2;
63707;PMS5003;67643;-34.198;22.084;2023-05-07T07:26:21;0;0;
63707;PMS5003;67643;-34.198;22.084;2023-05-07T07:28:49;2;1;
63707;PMS5003;67643;-34.198;22.084;2023-05-07T07:31:18;4;2;
63707;PMS5003;67643;-34.198;22.084;2023-05-07T07:33:46;1;0;
63707;PMS5003;67643;-34.198;22.084;2023-05-07T07:36:14;9;5;
63707;PMS5003;67643;-34.198;22.084;2023-05-07T07:38:43;5;2;
63707;PMS5003;67643;-34.198;22.084;2023-05-07T07:41:12;5;1;
63707;PMS5003;67643;-34.198;22.084;2023-05-07T07:43:40;3;3;
63707;PMS5003;67643;-34.198;22.084;2023-05-07T07:46:09;4;2;
63707;PMS5003;67643;-34.198;22.084;2023-05-07T07:48:37;6;1;
63707;PMS5003;67643;-34.198;22.084;2023-05-07T07:51:06;8;4;
63707;PMS5003;67643;-34.198;22.084;2023-05-07T07:53:34;4;0;
63707;PMS5003;67643;-34.198;22.084;2023-05-07T07:56:03;1;1;
63707;PMS5003;67643;-34.198;22.084;2023-05-07T07:58:32;7;3;
63707;PMS5003;67643;-34.198;22.084;2023-05-07T10:06:39;2;1;
63707;PMS5003;67643;-34.198;22.084;2023-05-07T10:09:09;3;3;
63707;PMS5003;67643;-34.198;22.084;2023-05-07T10:11:37;8;2;
63707;PMS5003;67643;-34.198;22.084;2023-05-07T10:14:06;7;2;
63707;PMS5003;67643;-34.198;22.084;2023-05-07T10:16:36;0;0;
63707;PMS5003;67643;-34.198;22.084;2023-05-07T10:19:06;4;3;
63707;PMS5003;67643;-34.198;22.084;2023-05-07T10:21:36;2;2;
63707;PMS5003;67643;-34.198;22.084;2023-05-07T10:24:08;1;1;
63707;PMS5003;67643;-34.198;22.084;2023-05-07T10:26:40;5;3;
63707;PMS5003;67643;-34.198;22.084;2023-05-07T10:29:14;0;0;
63707;PMS5003;67643;-34.198;22.084;2023-05-07T10:31:52;2;1;
63707;PMS5003;67643;-34.198;22.084;2023-05-07T10:34:28;3;1;
63707;PMS5003;67643;-34.198;22.084;2023-05-07T10:37:01;4;2;
63707;PMS5003;67643;-34.198;22.084;2023-05-07T10:39:31;2;2;
63707;PMS5003;67643;-34.198;22.084;2023-05-07T10:42:07;3;3;
63707;PMS5003;67643;-34.198;22.084;2023-05-07T10:44:36;1;1;
63707;PMS5003;67643;-34.198;22.084;2023-05-07T10:47:05;3;1;
63707;PMS5003;67643;-34.198;22.084;2023-05-07T10:49:35;1;0;
63707;PMS5003;67643;-34.198;22.084;2023-05-07T10:52:13;2;1;
63707;PMS5003;67643;-34.198;22.084;2023-05-07T10:54:43;4;1;
63707;PMS5003;67643;-34.198;22.084;2023-05-07T10:57:45;1;1;
63707;PMS5003;67643;-34.198;22.084;2023-05-07T11:00:41;1;1;
63707;PMS5003;67643;-34.198;22.084;2023-05-07T11:03:09;3;1;
63707;PMS5003;67643;-34.198;22.084;2023-05-07T11:05:38;2;1;
63707;PMS5003;67643;-34.198;22.084;2023-05-07T11:08:07;1;1;
63707;PMS5003;67643;-34.198;22.084;2023-05-07T11:10:53;1;1;
63707;PMS5003;67643;-34.198;22.084;2023-05-07T11:13:41;1;1;
63707;PMS5003;67643;-34.198;22.084;2023-05-07T11:16:18;1;1;
63707;PMS5003;67643;-34.198;22.084;2023-05-07T11:18:48;1;0;
63707;PMS5003;67643;-34.198;22.084;2023-05-07T11:21:50;3;1;
63707;PMS5003;67643;-34.198;22.084;2023-05-07T11:24:18;3;2;
63707;PMS5003;67643;-34.198;22.084;2023-05-07T11:26:47;3;0;
63707;PMS5003;67643;-34.198;22.084;2023-05-07T11:29:17;3;2;
63707;PMS5003;67643;-34.198;22.084;2023-05-07T11:31:49;4;1;
63707;PMS5003;67643;-34.198;22.084;2023-05-07T11:34:21;2;0;
63707;PMS5003;67643;-34.198;22.084;2023-05-07T11:36:50;1;1;
63707;PMS5003;67643;-34.198;22.084;2023-05-07T11:39:27;2;1;
63707;PMS5003;67643;-34.198;22.084;2023-05-07T11:41:57;1;1;
63707;PMS5003;67643;-34.198;22.084;2023-05-07T11:44:39;0;0;
63707;PMS5003;67643;-34.198;22.084;2023-05-07T11:47:08;1;1;
63707;PMS5003;67643;-34.198;22.084;2023-05-07T11:49:37;0;0;
63707;PMS5003;67643;-34.198;22.084;2023-05-07T11:52:06;2;0;
63707;PMS5003;67643;-34.198;22.084;2023-05-07T11:54:35;1;0;
63707;PMS5003;67643;-34.198;22.084;2023-05-07T11:57:04;1;1;
63707;PMS5003;67643;-34.198;22.084;2023-05-07T11:59:38;3;1;
63707;PMS5003;67643;-34.198;22.084;2023-05-07T12:02:07;4;1;
63707;PMS5003;67643;-34.198;22.084;2023-05-07T12:04:35;0;0;
63707;PMS5003;67643;-34.198;22.084;2023-05-07T12:07:05;3;1;
63707;PMS5003;67643;-34.198;22.084;2023-05-07T12:09:39;2;1;
63707;PMS5003;67643;-34.198;22.084;2023-05-07T12:12:08;3;1;
63707;PMS5003;67643;-34.198;22.084;2023-05-07T12:14:38;0;0;
63707;PMS5003;67643;-34.198;22.084;2023-05-07T12:17:08;2;0;
63707;PMS5003;67643;-34.198;22.084;2023-05-07T12:19:37;2;2;
63707;PMS5003;67643;-34.198;22.084;2023-05-07T12:22:07;4;2;
63707;PMS5003;67643;-34.198;22.084;2023-05-07T12:24:44;0;0;
63707;PMS5003;67643;-34.198;22.084;2023-05-07T12:27:15;3;0;
63707;PMS5003;67643;-34.198;22.084;2023-05-07T12:29:44;1;1;
63707;PMS5003;67643;-34.198;22.084;2023-05-07T12:32:14;3;1;
63707;PMS5003;67643;-34.198;22.084;2023-05-07T12:34:43;0;0;
63707;PMS5003;67643;-34.198;22.084;2023-05-07T12:37:12;1;1;
63707;PMS5003;67643;-34.198;22.084;2023-05-07T12:39:44;0;0;
63707;PMS5003;67643;-34.198;22.084;2023-05-07T12:42:15;1;0;
63707;PMS5003;67643;-34.198;22.084;2023-05-07T12:44:46;2;1;
63707;PMS5003;67643;-34.198;22.084;2023-05-07T12:47:15;4;0;
63707;PMS5003;67643;-34.198;22.084;2023-05-07T12:49:43;0;0;
63707;PMS5003;67643;-34.198;22.084;2023-05-07T12:52:11;1;1;
63707;PMS5003;67643;-34.198;22.084;2023-05-07T12:54:41;4;1;
63707;PMS5003;67643;-34.198;22.084;2023-05-07T12:57:11;2;2;
63707;PMS5003;67643;-34.198;22.084;2023-05-07T12:59:40;4;1;
63707;PMS5003;67643;-34.198;22.084;2023-05-07T13:02:09;4;1;
63707;PMS5003;67643;-34.198;22.084;2023-05-07T13:04:37;1;1;
63707;PMS5003;67643;-34.198;22.084;2023-05-07T13:07:05;2;2;
63707;PMS5003;67643;-34.198;22.084;2023-05-07T13:09:34;0;0;
63707;PMS5003;67643;-34.198;22.084;2023-05-07T13:12:02;1;1;
63707;PMS5003;67643;-34.198;22.084;2023-05-07T13:14:32;2;0;
63707;PMS5003;67643;-34.198;22.084;2023-05-07T13:17:00;1;1;
63707;PMS5003;67643;-34.198;22.084;2023-05-07T13:19:28;2;1;
63707;PMS5003;67643;-34.198;22.084;2023-05-07T13:21:57;3;3;
63707;PMS5003;67643;-34.198;22.084;2023-05-07T13:24:25;1;1;
63707;PMS5003;67643;-34.198;22.084;2023-05-07T13:26:54;2;0;
63707;PMS5003;67643;-34.198;22.084;2023-05-07T13:29:22;6;2;
63707;PMS5003;67643;-34.198;22.084;2023-05-07T13:31:51;2;1;
63707;PMS5003;67643;-34.198;22.084;2023-05-07T13:34:19;5;3;
63707;PMS5003;67643;-34.198;22.084;2023-05-07T13:36:47;3;3;
63707;PMS5003;67643;-34.198;22.084;2023-05-07T13:39:16;1;0;
63707;PMS5003;67643;-34.198;22.084;2023-05-07T13:41:44;3;2;
63707;PMS5003;67643;-34.198;22.084;2023-05-07T13:44:12;2;2;
63707;PMS5003;67643;-34.198;22.084;2023-05-07T13:46:41;1;1;
63707;PMS5003;67643;-34.198;22.084;2023-05-07T13:49:09;1;1;
63707;PMS5003;67643;-34.198;22.084;2023-05-07T13:51:38;3;2;
63707;PMS5003;67643;-34.198;22.084;2023-05-07T13:54:06;1;1;
63707;PMS5003;67643;-34.198;22.084;2023-05-07T13:56:35;3;1;
63707;PMS5003;67643;-34.198;22.084;2023-05-07T13:59:03;1;0;
63707;PMS5003;67643;-34.198;22.084;2023-05-07T14:01:32;3;2;
63707;PMS5003;67643;-34.198;22.084;2023-05-07T14:04:00;2;2;
63707;PMS5003;67643;-34.198;22.084;2023-05-07T14:06:29;1;1;
63707;PMS5003;67643;-34.198;22.084;2023-05-07T14:08:58;2;2;
63707;PMS5003;67643;-34.198;22.084;2023-05-07T14:11:26;4;2;
63707;PMS5003;67643;-34.198;22.084;2023-05-07T14:13:55;3;2;
63707;PMS5003;67643;-34.198;22.084;2023-05-07T14:16:24;3;2;
63707;PMS5003;67643;-34.198;22.084;2023-05-07T14:18:53;4;3;
63707;PMS5003;67643;-34.198;22.084;2023-05-07T14:21:21;2;0;
63707;PMS5003;67643;-34.198;22.084;2023-05-07T14:23:50;3;3;
63707;PMS5003;67643;-34.198;22.084;2023-05-07T14:26:18;0;0;
63707;PMS5003;67643;-34.198;22.084;2023-05-07T14:28:47;4;3;
63707;PMS5003;67643;-34.198;22.084;2023-05-07T14:31:15;1;1;
63707;PMS5003;67643;-34.198;22.084;2023-05-07T14:33:44;0;0;
63707;PMS5003;67643;-34.198;22.084;2023-05-07T14:36:12;3;2;
63707;PMS5003;67643;-34.198;22.084;2023-05-07T14:38:40;1;1;
63707;PMS5003;67643;-34.198;22.084;2023-05-07T14:41:09;3;1;
63707;PMS5003;67643;-34.198;22.084;2023-05-07T14:43:37;2;1;
63707;PMS5003;67643;-34.198;22.084;2023-05-07T14:46:06;1;1;
63707;PMS5003;67643;-34.198;22.084;2023-05-07T14:48:34;3;1;
63707;PMS5003;67643;-34.198;22.084;2023-05-07T14:51:02;3;3;
63707;PMS5003;67643;-34.198;22.084;2023-05-07T14:53:31;3;1;
63707;PMS5003;67643;-34.198;22.084;2023-05-07T14:56:00;3;1;
63707;PMS5003;67643;-34.198;22.084;2023-05-07T14:58:28;7;2;
63707;PMS5003;67643;-34.198;22.084;2023-05-07T15:00:57;4;1;
63707;PMS5003;67643;-34.198;22.084;2023-05-07T15:03:26;2;1;
63707;PMS5003;67643;-34.198;22.084;2023-05-07T15:05:54;2;2;
63707;PMS5003;67643;-34.198;22.084;2023-05-07T15:08:23;2;1;
63707;PMS5003;67643;-34.198;22.084;2023-05-07T15:10:51;2;0;
63707;PMS5003;67643;-34.198;22.084;2023-05-07T15:13:20;3;1;
63707;PMS5003;67643;-34.198;22.084;2023-05-07T15:15:49;2;1;
63707;PMS5003;67643;-34.198;22.084;2023-05-07T15:18:18;4;1;
63707;PMS5003;67643;-34.198;22.084;2023-05-07T15:20:46;2;2;
63707;PMS5003;67643;-34.198;22.084;2023-05-07T15:23:15;4;3;
63707;PMS5003;67643;-34.198;22.084;2023-05-07T15:25:43;5;3;
63707;PMS5003;67643;-34.198;22.084;2023-05-07T15:28:12;4;3;
63707;PMS5003;67643;-34.198;22.084;2023-05-07T15:30:40;5;3;
63707;PMS5003;67643;-34.198;22.084;2023-05-07T15:33:09;3;2;
63707;PMS5003;67643;-34.198;22.084;2023-05-07T15:35:38;5;3;
63707;PMS5003;67643;-34.198;22.084;2023-05-07T15:38:06;6;2;
63707;PMS5003;67643;-34.198;22.084;2023-05-07T15:40:34;4;1;
63707;PMS5003;67643;-34.198;22.084;2023-05-07T15:43:03;4;2;
63707;PMS5003;67643;-34.198;22.084;2023-05-07T15:45:31;3;1;
63707;PMS5003;67643;-34.198;22.084;2023-05-07T15:48:00;3;3;
63707;PMS5003;67643;-34.198;22.084;2023-05-07T15:50:28;6;3;
63707;PMS5003;67643;-34.198;22.084;2023-05-07T15:52:57;2;2;
63707;PMS5003;67643;-34.198;22.084;2023-05-07T15:55:25;5;2;
63707;PMS5003;67643;-34.198;22.084;2023-05-07T15:57:53;6;3;
63707;PMS5003;67643;-34.198;22.084;2023-05-07T16:00:22;1;0;
63707;PMS5003;67643;-34.198;22.084;2023-05-07T20:04:19;9;5;
63707;PMS5003;67643;-34.198;22.084;2023-05-07T20:06:47;9;6;
63707;PMS5003;67643;-34.198;22.084;2023-05-07T20:09:16;16;8;
63707;PMS5003;67643;-34.198;22.084;2023-05-07T20:11:44;12;11;
63707;PMS5003;67643;-34.198;22.084;2023-05-07T20:14:12;10;7;
63707;PMS5003;67643;-34.198;22.084;2023-05-07T20:16:41;12;10;
63707;PMS5003;67643;-34.198;22.084;2023-05-07T20:19:09;17;12;
63707;PMS5003;67643;-34.198;22.084;2023-05-07T20:21:37;13;10;
63707;PMS5003;67643;-34.198;22.084;2023-05-07T20:24:06;15;12;
63707;PMS5003;67643;-34.198;22.084;2023-05-07T20:26:35;18;10;
63707;PMS5003;67643;-34.198;22.084;2023-05-07T20:29:04;23;13;
63707;PMS5003;67643;-34.198;22.084;2023-05-07T20:31:32;17;13;
63707;PMS5003;67643;-34.198;22.084;2023-05-07T20:34:00;18;10;
63707;PMS5003;67643;-34.198;22.084;2023-05-07T20:36:28;17;10;
63707;PMS5003;67643;-34.198;22.084;2023-05-07T20:38:57;18;12;
63707;PMS5003;67643;-34.198;22.084;2023-05-07T20:41:25;17;12;
63707;PMS5003;67643;-34.198;22.084;2023-05-07T20:43:54;19;14;
63707;PMS5003;67643;-34.198;22.084;2023-05-07T20:46:23;14;9;
63707;PMS5003;67643;-34.198;22.084;2023-05-07T20:48:51;20;9;
63707;PMS5003;67643;-34.198;22.084;2023-05-07T20:51:19;17;12;
63707;PMS5003;67643;-34.198;22.084;2023-05-07T20:53:48;19;12;
63707;PMS5003;67643;-34.198;22.084;2023-05-07T20:56:16;10;9;
63707;PMS5003;67643;-34.198;22.084;2023-05-07T20:58:44;11;8;
63707;PMS5003;67643;-34.198;22.084;2023-05-07T21:01:13;9;9;
63707;PMS5003;67643;-34.198;22.084;2023-05-07T21:03:42;12;9;
63707;PMS5003;67643;-34.198;22.084;2023-05-07T21:06:12;14;12;
63707;PMS5003;67643;-34.198;22.084;2023-05-07T21:08:41;13;7;
63707;PMS5003;67643;-34.198;22.084;2023-05-07T21:11:09;13;9;
63707;PMS5003;67643;-34.198;22.084;2023-05-07T21:13:37;11;8;
63707;PMS5003;67643;-34.198;22.084;2023-05-07T21:16:06;9;9;
63707;PMS5003;67643;-34.198;22.084;2023-05-07T21:18:35;6;4;
63707;PMS5003;67643;-34.198;22.084;2023-05-07T21:21:06;10;8;
63707;PMS5003;67643;-34.198;22.084;2023-05-07T21:23:34;13;5;
63707;PMS5003;67643;-34.198;22.084;2023-05-07T21:26:03;5;5;
63707;PMS5003;67643;-34.198;22.084;2023-05-07T21:28:31;9;5;
63707;PMS5003;67643;-34.198;22.084;2023-05-07T21:31:00;9;7;
63707;PMS5003;67643;-34.198;22.084;2023-05-07T21:33:28;4;4;
63707;PMS5003;67643;-34.198;22.084;2023-05-07T21:35:56;5;3;
63707;PMS5003;67643;-34.198;22.084;2023-05-07T21:38:24;7;5;
63707;PMS5003;67643;-34.198;22.084;2023-05-07T21:40:53;5;4;
63707;PMS5003;67643;-34.198;22.084;2023-05-07T21:43:22;5;3;
63707;PMS5003;67643;-34.198;22.084;2023-05-07T21:45:51;6;5;
63707;PMS5003;67643;-34.198;22.084;2023-05-07T21:48:19;9;3;
63707;PMS5003;67643;-34.198;22.084;2023-05-07T21:50:47;6;4;
63707;PMS5003;67643;-34.198;22.084;2023-05-07T21:53:25;7;3;
63707;PMS5003;67643;-34.198;22.084;2023-05-07T21:55:53;9;5;
63707;PMS5003;67643;-34.198;22.084;2023-05-07T21:58:22;4;2;
63707;PMS5003;67643;-34.198;22.084;2023-05-07T22:00:50;6;4;
63707;PMS5003;67643;-34.198;22.084;2023-05-07T22:03:19;7;4;
63707;PMS5003;67643;-34.198;22.084;2023-05-07T22:05:48;4;4;
63707;PMS5003;67643;-34.198;22.084;2023-05-07T22:08:18;3;2;
63707;PMS5003;67643;-34.198;22.084;2023-05-07T22:10:46;6;4;
63707;PMS5003;67643;-34.198;22.084;2023-05-07T22:13:14;5;3;
63707;PMS5003;67643;-34.198;22.084;2023-05-07T22:15:43;3;3;
63707;PMS5003;67643;-34.198;22.084;2023-05-07T22:18:12;4;4;
63707;PMS5003;67643;-34.198;22.084;2023-05-07T22:20:40;6;3;
63707;PMS5003;67643;-34.198;22.084;2023-05-07T22:23:08;4;3;
63707;PMS5003;67643;-34.198;22.084;2023-05-07T22:25:37;3;2;
63707;PMS5003;67643;-34.198;22.084;2023-05-07T22:28:05;7;4;
63707;PMS5003;67643;-34.198;22.084;2023-05-07T22:30:34;2;2;
63707;PMS5003;67643;-34.198;22.084;2023-05-07T22:33:02;3;2;
63707;PMS5003;67643;-34.198;22.084;2023-05-07T22:35:30;1;1;
63707;PMS5003;67643;-34.198;22.084;2023-05-07T22:37:59;4;4;
63707;PMS5003;67643;-34.198;22.084;2023-05-07T22:40:27;1;1;
63707;PMS5003;67643;-34.198;22.084;2023-05-07T22:42:56;7;3;
63707;PMS5003;67643;-34.198;22.084;2023-05-07T22:45:24;1;1;
63707;PMS5003;67643;-34.198;22.084;2023-05-07T22:47:53;3;2;
63707;PMS5003;67643;-34.198;22.084;2023-05-07T22:50:21;2;2;
63707;PMS5003;67643;-34.198;22.084;2023-05-07T22:52:50;2;2;
63707;PMS5003;67643;-34.198;22.084;2023-05-07T22:55:18;1;1;
63707;PMS5003;67643;-34.198;22.084;2023-05-07T22:57:47;4;2;
63707;PMS5003;67643;-34.198;22.084;2023-05-07T23:00:15;5;3;
63707;PMS5003;67643;-34.198;22.084;2023-05-07T23:02:44;6;4;
63707;PMS5003;67643;-34.198;22.084;2023-05-07T23:05:12;7;5;
63707;PMS5003;67643;-34.198;22.084;2023-05-07T23:07:41;1;1;
63707;PMS5003;67643;-34.198;22.084;2023-05-07T23:10:10;7;3;
63707;PMS5003;67643;-34.198;22.084;2023-05-07T23:12:39;5;3;
63707;PMS5003;67643;-34.198;22.084;2023-05-07T23:15:08;1;1;
63707;PMS5003;67643;-34.198;22.084;2023-05-07T23:17:36;5;2;
63707;PMS5003;67643;-34.198;22.084;2023-05-07T23:20:05;2;2;
63707;PMS5003;67643;-34.198;22.084;2023-05-07T23:22:34;4;2;
63707;PMS5003;67643;-34.198;22.084;2023-05-07T23:25:03;1;1;
63707;PMS5003;67643;-34.198;22.084;2023-05-07T23:27:32;0;0;
63707;PMS5003;67643;-34.198;22.084;2023-05-07T23:30:00;2;2;
63707;PMS5003;67643;-34.198;22.084;2023-05-07T23:32:29;3;2;
63707;PMS5003;67643;-34.198;22.084;2023-05-07T23:34:58;1;1;
63707;PMS5003;67643;-34.198;22.084;2023-05-07T23:37:27;10;3;
63707;PMS5003;67643;-34.198;22.084;2023-05-07T23:39:55;3;3;
63707;PMS5003;67643;-34.198;22.084;2023-05-07T23:42:23;8;2;
63707;PMS5003;67643;-34.198;22.084;2023-05-07T23:44:51;2;0;
63707;PMS5003;67643;-34.198;22.084;2023-05-07T23:47:20;2;2;
63707;PMS5003;67643;-34.198;22.084;2023-05-07T23:49:49;2;1;
63707;PMS5003;67643;-34.198;22.084;2023-05-07T23:52:18;8;5;
63707;PMS5003;67643;-34.198;22.084;2023-05-07T23:54:46;3;2;
63707;PMS5003;67643;-34.198;22.084;2023-05-07T23:57:15;1;1;
63707;PMS5003;67643;-34.198;22.084;2023-05-07T23:59:43;3;1;
